createdAt,value
2022-11-29T00:02:14.983Z,100131.00
2022-11-29T00:05:22.312Z,100212.00
2022-11-29T00:08:06.401Z,100188.00
2022-11-29T00:10:48.871Z,100202.00
2022-11-29T00:13:29.183Z,100135.00
2022-11-29T00:16:16.499Z,100203.00
2022-11-29T00:19:00.203Z,100186.00
2022-11-29T00:21:52.030Z,100135.00
2022-11-29T00:24:33.695Z,100166.00
2022-11-29T00:27:10.956Z,100137.00
2022-11-29T00:29:50.115Z,100197.00
2022-11-29T00:32:28.246Z,100173.00
2022-11-29T00:35:19.942Z,100170.00
2022-11-29T00:38:22.515Z,100194.00
2022-11-29T00:41:04.941Z,100200.00
2022-11-29T00:43:40.786Z,100132.00
2022-11-29T00:46:32.298Z,100201.00
2022-11-29T00:52:22.531Z,100189.00
2022-11-29T00:55:03.198Z,100206.00
2022-11-29T00:57:49.550Z,100204.00
2022-11-29T01:00:53.257Z,100137.00
2022-11-29T01:03:40.913Z,100110.00
2022-11-29T01:06:22.785Z,100189.00
2022-11-29T01:09:01.497Z,100192.00
2022-11-29T01:11:45.001Z,100114.00
2022-11-29T01:14:28.948Z,100141.00
2022-11-29T01:17:10.179Z,100150.00
2022-11-29T01:20:25.159Z,100150.00
2022-11-29T01:23:04.629Z,100152.00
2022-11-29T01:25:44.785Z,100205.00
2022-11-29T01:28:22.383Z,100177.00
2022-11-29T01:31:30.054Z,100187.00
2022-11-29T01:34:17.269Z,100203.00
2022-11-29T01:36:54.794Z,100130.00
2022-11-29T01:39:35.012Z,100142.00
2022-11-29T01:42:15.576Z,100149.00
2022-11-29T01:45:26.059Z,100215.00
2022-11-29T01:48:31.198Z,100220.00
2022-11-29T01:51:08.328Z,100135.00
2022-11-29T01:53:43.486Z,100165.00
2022-11-29T01:56:19.672Z,100204.00
2022-11-29T01:59:05.873Z,100141.00
2022-11-29T02:02:11.165Z,100170.00
2022-11-29T02:04:51.118Z,100151.00
2022-11-29T02:07:29.118Z,100239.00
2022-11-29T02:10:08.935Z,100168.00
2022-11-29T02:13:31.790Z,100162.00
2022-11-29T02:16:20.163Z,100141.00
2022-11-29T02:19:21.078Z,100180.00
2022-11-29T02:22:11.351Z,100150.00
2022-11-29T02:25:21.733Z,100243.00
2022-11-29T02:28:52.712Z,100168.00
2022-11-29T02:32:25.743Z,100243.00
2022-11-29T02:36:03.351Z,100236.00
2022-11-29T02:39:32.374Z,100243.00
2022-11-29T02:42:56.874Z,100223.00
2022-11-29T02:46:29.874Z,100253.00
2022-11-29T02:49:31.623Z,100171.00
2022-11-29T02:52:38.250Z,100213.00
2022-11-29T02:55:27.826Z,100232.00
2022-11-29T02:58:27.202Z,100204.00
2022-11-29T03:01:26.366Z,100260.00
2022-11-29T03:04:23.176Z,100237.00
2022-11-29T03:07:12.079Z,100258.00
2022-11-29T03:10:12.767Z,100258.00
2022-11-29T03:12:59.214Z,100255.00
2022-11-29T03:15:56.277Z,100246.00
2022-11-29T03:19:02.963Z,100219.00
2022-11-29T03:22:16.151Z,100202.00
2022-11-29T03:25:11.450Z,100216.00
2022-11-29T03:27:55.992Z,100256.00
2022-11-29T03:30:44.715Z,100227.00
2022-11-29T03:34:04.945Z,100289.00
2022-11-29T03:37:28.192Z,100254.00
2022-11-29T03:40:16.564Z,100281.00
2022-11-29T03:43:10.026Z,100251.00
2022-11-29T03:46:07.695Z,100279.00
2022-11-29T03:49:04.588Z,100264.00
2022-11-29T03:52:29.934Z,100262.00
2022-11-29T03:55:29.670Z,100291.00
2022-11-29T03:58:30.792Z,100248.00
2022-11-29T04:01:49.324Z,100313.00
2022-11-29T04:05:11.992Z,100236.00
2022-11-29T04:08:48.692Z,100297.00
2022-11-29T04:12:08.059Z,100278.00
2022-11-29T04:15:34.052Z,100310.00
2022-11-29T04:22:39.956Z,100332.00
2022-11-29T04:25:56.276Z,100325.00
2022-11-29T04:29:23.721Z,100321.00
2022-11-29T04:32:28.861Z,100282.00
2022-11-29T04:35:40.891Z,100268.00
2022-11-29T04:39:27.785Z,100361.00
2022-11-29T04:42:57.100Z,100285.00
2022-11-29T04:46:27.294Z,100336.00
2022-11-29T04:49:29.232Z,100340.00
2022-11-29T04:52:46.810Z,100268.00
2022-11-29T04:55:42.368Z,100341.00
2022-11-29T04:58:33.244Z,100318.00
2022-11-29T05:01:35.128Z,100311.00
2022-11-29T05:04:20.088Z,100293.00
2022-11-29T05:07:10.055Z,100313.00
2022-11-29T05:10:23.786Z,100304.00
2022-11-29T05:13:15.540Z,100314.00
2022-11-29T05:17:03.421Z,100306.00
2022-11-29T05:19:56.002Z,100310.00
2022-11-29T05:22:49.541Z,100322.00
2022-11-29T05:25:40.983Z,100370.00
2022-11-29T05:28:50.159Z,100302.00
2022-11-29T05:32:12.997Z,100381.00
2022-11-29T05:35:20.345Z,100303.00
2022-11-29T05:38:05.507Z,100359.00
2022-11-29T05:41:24.436Z,100306.00
2022-11-29T05:44:13.192Z,100401.00
2022-11-29T05:47:20.370Z,100424.00
2022-11-29T05:50:10.761Z,100306.00
2022-11-29T05:53:03.937Z,100375.00
2022-11-29T05:56:05.862Z,100409.00
2022-11-29T05:59:00.100Z,100389.00
2022-11-29T06:01:51.929Z,100367.00
2022-11-29T06:04:49.248Z,100396.00
2022-11-29T06:07:36.433Z,100384.00
2022-11-29T06:10:25.347Z,100376.00
2022-11-29T06:13:22.257Z,100373.00
2022-11-29T06:16:44.567Z,100416.00
2022-11-29T06:20:18.468Z,100378.00
2022-11-29T06:23:29.695Z,100455.00
2022-11-29T06:26:29.524Z,100456.00
2022-11-29T06:29:39.166Z,100410.00
2022-11-29T06:32:31.105Z,100447.00
2022-11-29T06:35:20.912Z,100451.00
2022-11-29T06:38:07.106Z,100451.00
2022-11-29T06:40:45.101Z,100411.00
2022-11-29T06:43:44.893Z,100408.00
2022-11-29T06:46:46.633Z,100485.00
2022-11-29T06:49:29.372Z,100482.00
2022-11-29T06:52:27.375Z,100485.00
2022-11-29T06:55:36.817Z,100515.00
2022-11-29T06:58:36.693Z,100480.00
2022-11-29T07:01:35.060Z,100417.00
2022-11-29T07:04:46.515Z,100482.00
2022-11-29T07:07:31.321Z,100478.00
2022-11-29T07:10:16.083Z,100483.00
2022-11-29T07:12:53.464Z,100491.00
2022-11-29T07:15:33.368Z,100493.00
2022-11-29T07:18:44.003Z,100503.00
2022-11-29T07:21:41.334Z,100502.00
2022-11-29T07:24:53.696Z,100486.00
2022-11-29T07:27:51.443Z,100472.00
2022-11-29T07:30:37.634Z,100475.00
2022-11-29T07:33:57.744Z,100505.00
2022-11-29T07:37:07.474Z,100505.00
2022-11-29T07:40:04.194Z,100463.00
2022-11-29T07:42:58.004Z,100493.00
2022-11-29T07:45:58.112Z,100525.00
2022-11-29T07:48:36.710Z,100433.00
2022-11-29T07:51:13.205Z,100478.00
2022-11-29T07:53:48.570Z,100537.00
2022-11-29T07:56:56.232Z,100500.00
2022-11-29T07:59:33.553Z,100507.00
2022-11-29T08:05:17.314Z,100488.00
2022-11-29T08:08:27.012Z,100491.00
2022-11-29T08:11:10.676Z,100459.00
2022-11-29T08:14:22.431Z,100483.00
2022-11-29T08:17:20.276Z,100549.00
2022-11-29T08:20:02.575Z,100552.00
2022-11-29T08:22:47.419Z,100565.00
2022-11-29T08:25:21.921Z,100493.00
2022-11-29T08:28:00.584Z,100515.00
2022-11-29T08:31:03.809Z,100539.00
2022-11-29T08:33:52.130Z,100499.00
2022-11-29T08:36:28.915Z,100543.00
2022-11-29T08:39:10.167Z,100555.00
2022-11-29T08:42:10.439Z,100496.00
2022-11-29T08:44:45.388Z,100557.00
2022-11-29T08:47:41.438Z,100540.00
2022-11-29T08:50:23.234Z,100565.00
2022-11-29T08:53:31.393Z,100538.00
2022-11-29T08:56:31.938Z,100547.00
2022-11-29T08:59:09.661Z,100529.00
2022-11-29T09:01:54.323Z,100506.00
2022-11-29T09:04:33.965Z,100488.00
2022-11-29T09:07:56.909Z,100571.00
2022-11-29T09:10:37.684Z,100592.00
2022-11-29T09:13:28.957Z,100598.00
2022-11-29T09:16:24.499Z,100607.00
2022-11-29T09:19:02.945Z,100537.00
2022-11-29T09:21:42.417Z,100534.00
2022-11-29T09:24:23.092Z,100602.00
2022-11-29T09:27:00.960Z,100542.00
2022-11-29T09:29:35.828Z,100530.00
2022-11-29T09:32:12.329Z,100599.00
2022-11-29T09:35:13.405Z,100624.00
2022-11-29T09:37:57.534Z,100611.00
2022-11-29T09:40:48.981Z,100630.00
2022-11-29T09:43:49.568Z,100616.00
2022-11-29T09:46:58.805Z,100640.00
2022-11-29T09:50:05.763Z,100634.00
2022-11-29T09:53:27.339Z,100598.00
2022-11-29T09:57:10.226Z,100636.00
2022-11-29T10:00:29.522Z,100598.00
2022-11-29T10:03:28.168Z,100650.00
2022-11-29T10:06:37.220Z,100630.00
2022-11-29T10:09:56.987Z,100662.00
2022-11-29T10:13:05.024Z,100627.00
2022-11-29T10:16:00.499Z,100597.00
2022-11-29T10:19:01.464Z,100577.00
2022-11-29T10:22:01.277Z,100656.00
2022-11-29T10:25:49.001Z,100635.00
2022-11-29T10:29:09.191Z,100627.00
2022-11-29T10:31:51.815Z,100637.00
2022-11-29T10:34:40.054Z,100540.00
2022-11-29T10:37:26.642Z,100539.00
2022-11-29T10:40:44.592Z,100595.00
2022-11-29T10:43:21.726Z,100658.00
2022-11-29T10:46:04.287Z,100637.00
2022-11-29T10:48:58.149Z,100599.00
2022-11-29T10:52:05.349Z,100616.00
2022-11-29T10:54:44.609Z,100672.00
2022-11-29T10:57:30.365Z,100616.00
2022-11-29T11:00:15.420Z,100629.00
2022-11-29T11:03:40.643Z,100664.00
2022-11-29T11:06:22.044Z,100653.00
2022-11-29T11:09:00.645Z,100600.00
2022-11-29T11:11:56.266Z,100645.00
2022-11-29T11:15:18.303Z,100651.00
2022-11-29T11:18:21.096Z,100648.00
2022-11-29T11:21:01.656Z,100630.00
2022-11-29T11:24:12.849Z,100648.00
2022-11-29T11:27:39.184Z,100655.00
2022-11-29T11:30:28.283Z,100641.00
2022-11-29T11:34:11.464Z,100642.00
2022-11-29T11:36:51.425Z,100603.00
2022-11-29T11:40:44.471Z,100568.00
2022-11-29T11:43:56.164Z,100607.00
2022-11-29T11:47:10.435Z,100652.00
2022-11-29T11:50:19.433Z,100573.00
2022-11-29T11:53:09.021Z,100604.00
2022-11-29T11:56:13.570Z,100579.00
2022-11-29T11:58:53.379Z,100625.00
2022-11-29T12:02:02.896Z,100598.00
2022-11-29T12:04:46.311Z,100666.00
2022-11-29T12:08:13.713Z,100629.00
2022-11-29T12:11:02.793Z,100667.00
2022-11-29T12:13:52.998Z,100606.00
2022-11-29T12:17:20.026Z,100596.00
2022-11-29T12:20:39.510Z,100578.00
2022-11-29T12:24:35.175Z,100608.00
2022-11-29T12:27:14.559Z,100664.00
2022-11-29T12:30:04.484Z,100628.00
2022-11-29T12:33:30.780Z,100665.00
2022-11-29T12:37:08.748Z,100630.00
2022-11-29T12:40:06.294Z,100617.00
2022-11-29T12:43:55.468Z,100642.00
2022-11-29T12:47:35.225Z,100704.00
2022-11-29T12:50:58.571Z,100699.00
2022-11-29T12:54:21.434Z,100650.00
2022-11-29T12:57:36.578Z,100714.00
2022-11-29T13:00:17.351Z,100696.00
2022-11-29T13:03:31.112Z,100639.00
2022-11-29T13:06:43.699Z,100647.00
2022-11-29T13:10:18.316Z,100700.00
2022-11-29T13:13:44.525Z,100717.00
2022-11-29T13:17:12.999Z,100715.00
2022-11-29T13:20:40.964Z,100700.00
2022-11-29T13:26:32.627Z,100713.00
2022-11-29T13:29:39.716Z,100708.00
2022-11-29T13:32:41.250Z,100722.00
2022-11-29T13:35:33.887Z,100668.00
2022-11-29T13:38:28.289Z,100708.00
2022-11-29T13:41:23.717Z,100732.00
2022-11-29T13:44:13.743Z,100671.00
2022-11-29T13:47:16.362Z,100671.00
2022-11-29T13:50:07.563Z,100675.00
2022-11-29T13:52:59.296Z,100722.00
2022-11-29T13:56:00.363Z,100729.00
2022-11-29T13:58:44.592Z,100647.00
2022-11-29T14:01:38.706Z,100699.00
2022-11-29T14:04:47.907Z,100671.00
2022-11-29T14:07:36.310Z,100671.00
2022-11-29T14:10:29.532Z,100687.00
2022-11-29T14:13:33.330Z,100687.00
2022-11-29T14:16:36.621Z,100688.00
2022-11-29T14:19:43.864Z,100752.00
2022-11-29T14:22:44.226Z,100645.00
2022-11-29T14:28:46.651Z,100675.00
2022-11-29T14:32:24.855Z,100663.00
2022-11-29T14:35:18.221Z,100756.00
2022-11-29T14:38:06.864Z,100710.00
2022-11-29T14:40:59.871Z,100744.00
2022-11-29T14:47:51.281Z,100756.00
2022-11-29T14:50:52.273Z,100750.00
2022-11-29T14:53:39.947Z,100706.00
2022-11-29T14:57:00.316Z,100745.00
2022-11-29T15:00:01.693Z,100762.00
2022-11-29T15:03:16.134Z,100671.00
2022-11-29T15:06:02.819Z,100755.00
2022-11-29T15:08:56.107Z,100691.00
2022-11-29T15:11:50.525Z,100755.00
2022-11-29T15:14:56.315Z,100762.00
2022-11-29T15:18:09.846Z,100709.00
2022-11-29T15:21:14.314Z,100757.00
2022-11-29T15:23:52.134Z,100753.00
2022-11-29T15:27:12.365Z,100697.00
2022-11-29T15:30:14.692Z,100767.00
2022-11-29T15:33:45.641Z,100771.00
2022-11-29T15:36:28.933Z,100701.00
2022-11-29T15:39:25.855Z,100722.00
2022-11-29T15:42:21.363Z,100691.00
2022-11-29T15:45:38.914Z,100778.00
2022-11-29T15:48:41.597Z,100805.00
2022-11-29T15:51:30.327Z,100787.00
2022-11-29T15:54:18.202Z,100740.00
2022-11-29T15:56:59.969Z,100790.00
2022-11-29T16:00:23.447Z,100791.00
2022-11-29T16:03:19.759Z,100741.00
2022-11-29T16:06:41.505Z,100795.00
2022-11-29T16:09:20.173Z,100820.00
2022-11-29T16:12:14.368Z,100791.00
2022-11-29T16:15:11.286Z,100799.00
2022-11-29T16:17:46.085Z,100792.00
2022-11-29T16:20:31.973Z,100765.00
2022-11-29T16:23:20.977Z,100749.00
2022-11-29T16:26:33.145Z,100789.00
2022-11-29T16:29:39.496Z,100760.00
2022-11-29T16:32:32.232Z,100752.00
2022-11-29T16:35:33.603Z,100765.00
2022-11-29T16:38:24.015Z,100748.00
2022-11-29T16:41:40.415Z,100829.00
2022-11-29T16:45:29.962Z,100781.00
2022-11-29T16:48:19.377Z,100759.00
2022-11-29T16:51:25.707Z,100798.00
2022-11-29T16:54:34.954Z,100797.00
2022-11-29T16:57:17.053Z,100797.00
2022-11-29T17:00:00.783Z,100756.00
2022-11-29T17:02:37.489Z,100764.00
2022-11-29T17:05:20.080Z,100740.00
2022-11-29T17:08:15.055Z,100764.00
2022-11-29T17:10:51.260Z,100817.00
2022-11-29T17:13:35.368Z,100822.00
2022-11-29T17:16:19.179Z,100768.00
2022-11-29T17:18:55.401Z,100788.00
2022-11-29T17:21:39.338Z,100819.00
2022-11-29T17:24:26.473Z,100743.00
2022-11-29T17:27:08.251Z,100759.00
2022-11-29T17:29:51.320Z,100726.00
2022-11-29T17:32:37.375Z,100761.00
2022-11-29T17:35:19.787Z,100812.00
2022-11-29T17:38:01.700Z,100740.00
2022-11-29T17:41:23.460Z,100770.00
2022-11-29T17:44:16.300Z,100765.00
2022-11-29T17:47:16.158Z,100776.00
2022-11-29T17:50:02.656Z,100814.00
2022-11-29T17:52:55.049Z,100806.00
2022-11-29T17:55:29.903Z,100776.00
2022-11-29T17:59:00.386Z,100822.00
2022-11-29T18:02:55.773Z,100755.00
2022-11-29T18:05:45.606Z,100828.00
2022-11-29T18:16:58.844Z,100825.00
2022-11-29T18:23:42.898Z,100837.00
2022-11-29T18:30:05.068Z,100847.00
2022-11-29T18:33:04.889Z,100780.00
2022-11-29T18:36:34.336Z,100859.00
2022-11-29T18:43:43.577Z,100847.00
2022-11-29T18:46:35.731Z,100843.00
2022-11-29T18:49:52.033Z,100822.00
2022-11-29T18:52:53.810Z,100837.00
2022-11-29T18:55:40.916Z,100846.00
2022-11-29T18:58:38.344Z,100855.00
2022-11-29T19:01:41.848Z,100854.00
2022-11-29T19:04:49.102Z,100855.00
2022-11-29T19:08:13.828Z,100764.00
2022-11-29T19:11:09.253Z,100852.00
2022-11-29T19:14:21.147Z,100797.00
2022-11-29T19:17:15.604Z,100814.00
2022-11-29T19:20:14.932Z,100813.00
2022-11-29T19:23:04.078Z,100775.00
2022-11-29T19:26:14.364Z,100797.00
2022-11-29T19:29:17.828Z,100806.00
2022-11-29T19:32:10.660Z,100804.00
2022-11-29T19:35:51.060Z,100877.00
2022-11-29T19:39:05.747Z,100870.00
2022-11-29T19:42:06.047Z,100794.00
2022-11-29T19:45:15.508Z,100844.00
2022-11-29T19:48:16.146Z,100830.00
2022-11-29T19:51:31.119Z,100878.00
2022-11-29T19:54:48.128Z,100828.00
2022-11-29T20:04:45.203Z,100823.00
2022-11-29T20:08:07.700Z,100889.00
2022-11-29T20:14:57.016Z,100803.00
2022-11-29T20:17:52.300Z,100833.00
2022-11-29T20:20:45.459Z,100900.00
2022-11-29T20:23:52.233Z,100884.00
2022-11-29T20:27:13.066Z,100862.00
2022-11-29T20:30:43.597Z,100902.00
2022-11-29T20:34:56.448Z,100819.00
2022-11-29T20:39:07.486Z,100858.00
2022-11-29T20:42:52.306Z,100833.00
2022-11-29T20:54:28.287Z,100821.00
2022-11-29T21:15:17.542Z,100911.00
2022-11-29T21:19:05.257Z,100921.00
2022-11-29T21:41:54.508Z,100929.00
2022-11-29T21:49:46.052Z,100848.00
2022-11-29T22:01:33.641Z,100916.00
2022-11-29T22:09:31.912Z,100854.00
2022-11-29T22:12:52.209Z,100962.00
2022-11-29T22:29:42.161Z,100920.00
2022-11-29T22:41:24.847Z,100888.00
2022-11-29T23:53:47.950Z,100945.00
2022-11-29T23:57:24.894Z,100890.00
